Time,TemperatureF,DewpointF,PressureIn,WindDirection,WindDirectionDegrees,WindSpeedMPH,WindSpeedGustMPH,Humidity,HourlyPrecipIn,Conditions,Clouds,dailyrainin,SoftwareType,DateUTC
2013-04-30 13:10:00,80.0,75.1,30.14,ENE,67,7.0,9.0,85,0.00,,,0.00,Weather View 32 v70,2013-04-30 17:10:00,
2013-04-30 13:15:00,80.0,75.1,30.14,East,90,9.0,10.0,85,0.00,,,0.00,Weather View 32 v70,2013-04-30 17:15:00,
2013-04-30 13:20:00,81.0,76.0,30.14,SSE,157,6.0,10.0,85,0.00,,,0.00,Weather View 32 v70,2013-04-30 17:20:00,
2013-04-30 13:25:00,81.0,76.0,30.14,ENE,67,7.0,10.0,85,0.00,,,0.00,Weather View 32 v70,2013-04-30 17:25:00,
2013-04-30 13:30:00,81.0,76.0,30.14,East,90,4.0,10.0,85,0.00,,,0.00,Weather View 32 v70,2013-04-30 17:30:00,
2013-04-30 13:35:00,81.0,76.0,30.14,East,90,6.0,10.0,85,0.00,,,0.00,Weather View 32 v70,2013-04-30 17:35:00,
2013-04-30 13:40:00,82.0,77.0,30.14,East,90,8.0,10.0,85,0.00,,,0.00,Weather View 32 v70,2013-04-30 17:40:00,
2013-04-30 13:45:00,82.0,77.0,30.14,East,90,6.0,10.0,85,0.00,,,0.00,Weather View 32 v70,2013-04-30 17:45:00,
2013-04-30 13:50:00,82.0,77.0,30.14,East,90,6.0,10.0,85,0.00,,,0.00,Weather View 32 v70,2013-04-30 17:50:00,
2013-04-30 13:55:00,82.0,77.0,30.14,East,90,3.0,10.0,85,0.00,,,0.00,Weather View 32 v70,2013-04-30 17:55:00,
2013-04-30 14:00:00,83.0,78.0,30.14,ENE,67,2.0,10.0,85,0.00,,,0.00,Weather View 32 v70,2013-04-30 18:00:00,
2013-04-30 14:05:00,83.0,78.0,30.14,SSE,157,7.0,10.0,85,0.00,,,0.00,Weather View 32 v70,2013-04-30 18:05:00,
2013-04-30 14:10:00,83.0,78.0,30.14,ENE,67,7.0,10.0,85,0.00,,,0.00,Weather View 32 v70,2013-04-30 18:10:00,
2013-04-30 14:15:00,83.0,78.0,30.14,East,90,6.0,10.0,85,0.00,,,0.00,Weather View 32 v70,2013-04-30 18:15:00,
2013-04-30 14:20:00,83.0,78.0,30.14,ENE,67,4.0,10.0,85,0.00,,,0.00,Weather View 32 v70,2013-04-30 18:20:00,
2013-04-30 14:25:00,84.0,79.3,30.13,ENE,67,0.0,9.0,86,0.00,,,0.00,Weather View 32 v70,2013-04-30 18:25:00,
2013-04-30 14:30:00,83.0,78.0,30.13,East,90,6.0,10.0,85,0.00,,,0.00,Weather View 32 v70,2013-04-30 18:30:00,
2013-04-30 14:35:00,83.0,78.0,30.13,East,90,5.0,10.0,85,0.00,,,0.00,Weather View 32 v70,2013-04-30 18:35:00,
2013-04-30 14:40:00,83.0,78.0,30.13,ENE,67,7.0,10.0,85,0.00,,,0.00,Weather View 32 v70,2013-04-30 18:40:00,
2013-04-30 14:45:00,83.0,78.0,30.13,East,90,7.0,10.0,85,0.00,,,0.00,Weather View 32 v70,2013-04-30 18:45:00,
2013-04-30 14:50:00,84.0,79.3,30.13,ENE,67,9.0,10.0,86,0.00,,,0.00,Weather View 32 v70,2013-04-30 18:50:00,
2013-04-30 14:55:00,84.0,79.3,30.13,ENE,67,4.0,10.0,86,0.00,,,0.00,Weather View 32 v70,2013-04-30 18:55:00,
2013-04-30 15:00:00,84.0,79.3,30.13,ENE,67,5.0,10.0,86,0.00,,,0.00,Weather View 32 v70,2013-04-30 19:00:00,
2013-04-30 15:05:00,85.0,80.3,30.13,East,90,1.0,10.0,86,0.00,,,0.00,Weather View 32 v70,2013-04-30 19:05:00,
2013-04-30 15:10:00,85.0,80.3,30.13,East,90,2.0,10.0,86,0.00,,,0.00,Weather View 32 v70,2013-04-30 19:10:00,
2013-04-30 15:15:00,84.0,79.3,30.14,ENE,67,6.0,10.0,86,0.00,,,0.00,Weather View 32 v70,2013-04-30 19:15:00,
2013-04-30 15:20:00,85.0,80.7,30.14,ENE,67,4.0,10.0,87,0.00,,,0.00,Weather View 32 v70,2013-04-30 19:20:00,
2013-04-30 15:25:00,86.0,81.7,30.13,East,90,9.0,10.0,87,0.00,,,0.00,Weather View 32 v70,2013-04-30 19:25:00,
2013-04-30 15:30:00,86.0,81.7,30.13,East,90,6.0,10.0,87,0.00,,,0.00,Weather View 32 v70,2013-04-30 19:30:00,
2013-04-30 15:35:00,86.0,81.7,30.13,ENE,67,5.0,10.0,87,0.00,,,0.00,Weather View 32 v70,2013-04-30 19:35:00,
2013-04-30 15:40:00,88.0,83.6,30.13,East,90,3.0,10.0,87,0.00,,,0.00,Weather View 32 v70,2013-04-30 19:40:00,
2013-04-30 15:45:00,85.0,80.7,30.13,East,90,6.0,10.0,87,0.00,,,0.00,Weather View 32 v70,2013-04-30 19:45:00,
2013-04-30 15:50:00,84.0,79.7,30.13,East,90,5.0,10.0,87,0.00,,,0.00,Weather View 32 v70,2013-04-30 19:50:00,
2013-04-30 15:55:00,85.0,80.7,30.13,ENE,67,3.0,10.0,87,0.00,,,0.00,Weather View 32 v70,2013-04-30 19:55:00,
2013-04-30 16:00:00,86.0,81.7,30.12,WSW,247,4.0,10.0,87,0.00,,,0.00,Weather View 32 v70,2013-04-30 20:00:00,
2013-04-30 16:05:00,87.0,82.6,30.12,NNW,337,3.0,10.0,87,0.00,,,0.00,Weather View 32 v70,2013-04-30 20:05:00,
2013-04-30 16:10:00,86.0,81.7,30.13,NNW,337,3.0,10.0,87,0.00,,,0.00,Weather View 32 v70,2013-04-30 20:10:00,
2013-04-30 16:15:00,85.0,80.7,30.12,NNW,337,7.0,10.0,87,0.00,,,0.00,Weather View 32 v70,2013-04-30 20:15:00,
2013-04-30 16:20:00,84.0,79.7,30.12,WSW,247,6.0,12.0,87,0.00,,,0.00,Weather View 32 v70,2013-04-30 20:20:00,
2013-04-30 16:25:00,84.0,79.7,30.12,NNW,337,5.0,12.0,87,0.00,,,0.00,Weather View 32 v70,2013-04-30 20:25:00,
2013-04-30 16:30:00,83.0,78.4,30.11,NNW,337,11.0,12.0,86,0.00,,,0.00,Weather View 32 v70,2013-04-30 20:30:00,
2013-04-30 16:35:00,82.0,77.4,30.11,NNW,337,4.0,13.0,86,0.00,,,0.00,Weather View 32 v70,2013-04-30 20:35:00,
2013-04-30 16:40:00,82.0,77.0,30.11,WSW,247,7.0,13.0,85,0.00,,,0.00,Weather View 32 v70,2013-04-30 20:40:00,
2013-04-30 16:45:00,82.0,77.0,30.11,NNW,337,7.0,13.0,85,0.00,,,0.00,Weather View 32 v70,2013-04-30 20:45:00,
2013-04-30 16:50:00,82.0,77.0,30.11,NNW,337,4.0,13.0,85,0.00,,,0.00,Weather View 32 v70,2013-04-30 20:50:00,
2013-04-30 16:55:00,83.0,78.0,30.11,NNW,337,2.0,13.0,85,0.00,,,0.00,Weather View 32 v70,2013-04-30 20:55:00,
2013-04-30 17:00:00,81.0,76.0,30.11,NNW,337,9.0,16.0,85,0.00,,,0.00,Weather View 32 v70,2013-04-30 21:00:00,
2013-04-30 17:05:00,81.0,76.0,30.11,NNW,337,11.0,16.0,85,0.00,,,0.00,Weather View 32 v70,2013-04-30 21:05:00,
2013-04-30 17:10:00,81.0,76.0,30.11,NNW,337,7.0,16.0,85,0.00,,,0.00,Weather View 32 v70,2013-04-30 21:10:00,
2013-04-30 17:15:00,81.0,76.0,30.11,NNW,337,12.0,16.0,85,0.00,,,0.00,Weather View 32 v70,2013-04-30 21:15:00,
2013-04-30 17:20:00,81.0,76.0,30.11,NNW,337,5.0,16.0,85,0.00,,,0.00,Weather View 32 v70,2013-04-30 21:20:00,
2013-04-30 17:25:00,80.0,75.1,30.10,NNW,337,9.0,16.0,85,0.00,,,0.00,Weather View 32 v70,2013-04-30 21:25:00,
2013-04-30 17:30:00,81.0,76.0,30.11,NNW,337,3.0,16.0,85,0.00,,,0.00,Weather View 32 v70,2013-04-30 21:30:00,
2013-04-30 17:35:00,82.0,77.0,30.11,NNW,337,8.0,16.0,85,0.00,,,0.00,Weather View 32 v70,2013-04-30 21:35:00,
2013-04-30 17:40:00,81.0,76.0,30.11,NNW,337,7.0,16.0,85,0.00,,,0.00,Weather View 32 v70,2013-04-30 21:40:00,
2013-04-30 17:45:00,80.0,75.1,30.11,NNW,337,7.0,16.0,85,0.00,,,0.00,Weather View 32 v70,2013-04-30 21:45:00,
2013-04-30 17:50:00,80.0,75.1,30.11,NNW,337,8.0,16.0,85,0.00,,,0.00,Weather View 32 v70,2013-04-30 21:50:00,
2013-04-30 17:55:00,81.0,76.0,30.11,NNW,337,6.0,16.0,85,0.00,,,0.00,Weather View 32 v70,2013-04-30 21:55:00,
2013-04-30 18:00:00,80.0,75.1,30.10,NNW,337,10.0,16.0,85,0.00,,,0.00,Weather View 32 v70,2013-04-30 22:00:00,
2013-04-30 18:05:00,79.0,74.1,30.10,NNW,337,9.0,15.0,85,0.00,,,0.00,Weather View 32 v70,2013-04-30 22:05:00,
2013-04-30 18:10:00,80.0,75.1,30.10,NNW,337,7.0,15.0,85,0.00,,,0.00,Weather View 32 v70,2013-04-30 22:10:00,
2013-04-30 18:15:00,80.0,75.1,30.10,WSW,247,4.0,15.0,85,0.00,,,0.00,Weather View 32 v70,2013-04-30 22:15:00,
2013-04-30 18:20:00,80.0,75.1,30.11,NNW,337,7.0,15.0,85,0.00,,,0.00,Weather View 32 v70,2013-04-30 22:20:00,
2013-04-30 18:25:00,79.0,74.1,30.11,NNW,337,6.0,15.0,85,0.00,,,0.00,Weather View 32 v70,2013-04-30 22:25:00,
2013-04-30 18:30:00,80.0,75.1,30.10,NNW,337,4.0,13.0,85,0.00,,,0.00,Weather View 32 v70,2013-04-30 22:30:00,
2013-04-30 18:35:00,80.0,75.1,30.10,NNW,337,3.0,13.0,85,0.00,,,0.00,Weather View 32 v70,2013-04-30 22:35:00,
2013-04-30 18:40:00,79.0,74.1,30.10,NNW,337,9.0,13.0,85,0.00,,,0.00,Weather View 32 v70,2013-04-30 22:40:00,
2013-04-30 18:45:00,79.0,74.1,30.10,NNW,337,7.0,13.0,85,0.00,,,0.00,Weather View 32 v70,2013-04-30 22:45:00,
2013-04-30 18:50:00,78.0,73.1,30.10,NNW,337,6.0,13.0,85,0.00,,,0.00,Weather View 32 v70,2013-04-30 22:50:00,
2013-04-30 18:55:00,78.0,73.1,30.09,NNW,337,9.0,13.0,85,0.00,,,0.00,Weather View 32 v70,2013-04-30 22:55:00,
2013-04-30 19:00:00,78.0,73.1,30.08,NNW,337,8.0,13.0,85,0.00,,,0.00,Weather View 32 v70,2013-04-30 23:00:00,
2013-04-30 19:05:00,78.0,73.1,30.08,NNW,337,12.0,12.0,85,0.00,,,0.00,Weather View 32 v70,2013-04-30 23:05:00,
2013-04-30 19:10:00,77.0,72.1,30.08,NNW,337,7.0,12.0,85,0.00,,,0.00,Weather View 32 v70,2013-04-30 23:10:00,
2013-04-30 19:15:00,77.0,72.1,30.08,NNW,337,4.0,12.0,85,0.00,,,0.00,Weather View 32 v70,2013-04-30 23:15:00,
2013-04-30 19:20:00,77.0,72.1,30.08,NNW,337,10.0,12.0,85,0.00,,,0.00,Weather View 32 v70,2013-04-30 23:20:00,
2013-04-30 19:25:00,77.0,72.1,30.08,NNW,337,4.0,12.0,85,0.00,,,0.00,Weather View 32 v70,2013-04-30 23:25:00,
2013-04-30 19:30:00,77.0,72.1,30.08,WSW,247,4.0,12.0,85,0.00,,,0.00,Weather View 32 v70,2013-04-30 23:30:00,
2013-04-30 19:35:00,77.0,72.1,30.09,NNW,337,2.0,12.0,85,0.00,,,0.00,Weather View 32 v70,2013-04-30 23:35:00,
2013-04-30 19:40:00,77.0,72.1,30.09,NNW,337,5.0,12.0,85,0.00,,,0.00,Weather View 32 v70,2013-04-30 23:40:00,
2013-04-30 19:45:00,77.0,72.1,30.09,NNW,337,3.0,12.0,85,0.00,,,0.00,Weather View 32 v70,2013-04-30 23:45:00,
2013-04-30 19:50:00,76.0,71.1,30.10,South,180,1.0,12.0,85,0.00,,,0.00,Weather View 32 v70,2013-04-30 23:50:00,
2013-04-30 19:55:00,77.0,72.1,30.10,NNW,337,7.0,12.0,85,0.00,,,0.00,Weather View 32 v70,2013-04-30 23:55:00,
2013-04-30 20:00:00,76.0,70.8,30.10,NNW,337,5.0,12.0,84,0.00,,,0.00,Weather View 32 v70,2013-05-01 00:00:00,
2013-04-30 20:05:00,76.0,70.8,30.10,WSW,247,6.0,12.0,84,0.00,,,0.00,Weather View 32 v70,2013-05-01 00:05:00,
2013-04-30 20:10:00,76.0,70.4,30.10,NNW,337,5.0,11.0,83,0.00,,,0.00,Weather View 32 v70,2013-05-01 00:10:00,
2013-04-30 20:15:00,76.0,70.4,30.10,NNW,337,4.0,11.0,83,0.00,,,0.00,Weather View 32 v70,2013-05-01 00:15:00,
2013-04-30 20:20:00,76.0,70.4,30.10,NNW,337,1.0,10.0,83,0.00,,,0.00,Weather View 32 v70,2013-05-01 00:20:00,
2013-04-30 20:25:00,76.0,70.4,30.11,North,360,3.0,8.0,83,0.00,,,0.00,Weather View 32 v70,2013-05-01 00:25:00,
2013-04-30 20:30:00,76.0,70.4,30.11,North,360,0.0,8.0,83,0.00,,,0.00,Weather View 32 v70,2013-05-01 00:30:00,
2013-04-30 20:35:00,76.0,70.1,30.12,ENE,67,2.0,8.0,82,0.00,,,0.00,Weather View 32 v70,2013-05-01 00:35:00,
2013-04-30 20:40:00,76.0,69.7,30.12,North,360,4.0,8.0,81,0.00,,,0.00,Weather View 32 v70,2013-05-01 00:40:00,
2013-04-30 20:45:00,75.0,68.4,30.12,East,90,6.0,13.0,80,0.00,,,0.00,Weather View 32 v70,2013-05-01 00:45:00,
2013-04-30 20:50:00,74.0,67.4,30.13,SSE,157,6.0,15.0,80,0.00,,,0.00,Weather View 32 v70,2013-05-01 00:50:00,
2013-04-30 20:55:00,74.0,67.4,30.12,SSE,157,0.0,16.0,80,0.00,,,0.00,Weather View 32 v70,2013-05-01 00:55:00,
2013-04-30 21:00:00,74.0,67.4,30.12,SSE,157,1.0,16.0,80,0.00,,,0.00,Weather View 32 v70,2013-05-01 01:00:00,
2013-04-30 21:05:00,74.0,67.4,30.13,SSE,157,9.0,16.0,80,0.00,,,0.00,Weather View 32 v70,2013-05-01 01:05:00,
2013-04-30 21:10:00,73.0,65.3,30.13,East,90,8.0,16.0,77,0.00,,,0.00,Weather View 32 v70,2013-05-01 01:10:00,
2013-04-30 21:15:00,72.0,62.8,30.13,East,90,2.0,16.0,73,0.00,,,0.00,Weather View 32 v70,2013-05-01 01:15:00,
2013-04-30 21:20:00,72.0,61.6,30.12,ENE,67,7.0,16.0,70,0.00,,,0.00,Weather View 32 v70,2013-05-01 01:20:00,
2013-04-30 21:25:00,72.0,60.8,30.12,East,90,5.0,16.0,68,0.00,,,0.00,Weather View 32 v70,2013-05-01 01:25:00,
2013-04-30 21:30:00,72.0,60.0,30.12,East,90,6.0,16.0,66,0.00,,,0.00,Weather View 32 v70,2013-05-01 01:30:00,
2013-04-30 21:35:00,72.0,60.0,30.12,SSE,157,4.0,16.0,66,0.00,,,0.00,Weather View 32 v70,2013-05-01 01:35:00,
2013-04-30 21:40:00,71.0,58.6,30.12,East,90,4.0,16.0,65,0.00,,,0.00,Weather View 32 v70,2013-05-01 01:40:00,
2013-04-30 21:45:00,72.0,59.1,30.12,SSE,157,2.0,16.0,64,0.00,,,0.00,Weather View 32 v70,2013-05-01 01:45:00,
2013-04-30 21:50:00,72.0,58.7,30.12,SSE,157,6.0,16.0,63,0.01,,,0.01,Weather View 32 v70,2013-05-01 01:50:00,
2013-04-30 21:55:00,71.0,56.8,30.12,SSE,157,3.0,14.0,61,0.01,,,0.01,Weather View 32 v70,2013-05-01 01:55:00,
2013-04-30 22:00:00,71.0,56.8,30.12,SSE,157,4.0,14.0,61,0.02,,,0.02,Weather View 32 v70,2013-05-01 02:00:00,
2013-04-30 22:05:00,71.0,56.4,30.12,SSE,157,1.0,14.0,60,0.02,,,0.02,Weather View 32 v70,2013-05-01 02:05:00,
2013-04-30 22:10:00,71.0,56.4,30.13,South,180,0.0,14.0,60,0.02,,,0.02,Weather View 32 v70,2013-05-01 02:10:00,
2013-04-30 22:15:00,71.0,55.9,30.13,SSE,157,2.0,13.0,59,0.02,,,0.02,Weather View 32 v70,2013-05-01 02:15:00,
2013-04-30 22:20:00,71.0,55.9,30.13,SSE,157,0.0,12.0,59,0.02,,,0.02,Weather View 32 v70,2013-05-01 02:20:00,
2013-04-30 22:25:00,71.0,55.9,30.13,SSE,157,0.0,12.0,59,0.02,,,0.02,Weather View 32 v70,2013-05-01 02:25:00,
2013-04-30 22:30:00,71.0,55.9,30.13,SSE,157,2.0,9.0,59,0.02,,,0.02,Weather View 32 v70,2013-05-01 02:30:00,
2013-04-30 22:35:00,71.0,56.4,30.13,East,90,3.0,9.0,60,0.02,,,0.02,Weather View 32 v70,2013-05-01 02:35:00,
2013-04-30 22:40:00,71.0,56.4,30.13,ENE,67,1.0,9.0,60,0.02,,,0.02,Weather View 32 v70,2013-05-01 02:40:00,
2013-04-30 22:45:00,71.0,56.8,30.13,East,90,0.0,8.0,61,0.02,,,0.02,Weather View 32 v70,2013-05-01 02:45:00,
2013-04-30 22:50:00,71.0,57.7,30.13,East,90,3.0,7.0,63,0.01,,,0.02,Weather View 32 v70,2013-05-01 02:50:00,
2013-04-30 22:55:00,71.0,58.6,30.13,East,90,6.0,7.0,65,0.01,,,0.02,Weather View 32 v70,2013-05-01 02:55:00,
2013-04-30 23:00:00,72.0,59.6,30.13,East,90,6.0,9.0,65,0.00,,,0.02,Weather View 32 v70,2013-05-01 03:00:00,
2013-04-30 23:05:00,72.0,58.7,30.12,East,90,10.0,12.0,63,0.00,,,0.02,Weather View 32 v70,2013-05-01 03:05:00,
2013-04-30 23:10:00,71.0,56.4,30.11,ENE,67,6.0,12.0,60,0.00,,,0.02,Weather View 32 v70,2013-05-01 03:10:00,
2013-04-30 23:15:00,70.0,55.0,30.12,East,90,8.0,13.0,59,0.00,,,0.02,Weather View 32 v70,2013-05-01 03:15:00,
2013-04-30 23:20:00,70.0,54.5,30.12,East,90,7.0,13.0,58,0.00,,,0.02,Weather View 32 v70,2013-05-01 03:20:00,
2013-04-30 23:25:00,70.0,54.0,30.11,ENE,67,9.0,13.0,57,0.00,,,0.02,Weather View 32 v70,2013-05-01 03:25:00,
2013-04-30 23:30:00,70.0,54.5,30.11,ENE,67,11.0,13.0,58,0.00,,,0.02,Weather View 32 v70,2013-05-01 03:30:00,
2013-04-30 23:35:00,70.0,54.5,30.11,ENE,67,9.0,13.0,58,0.00,,,0.02,Weather View 32 v70,2013-05-01 03:35:00,
2013-04-30 23:40:00,70.0,54.5,30.11,ENE,67,3.0,13.0,58,0.00,,,0.02,Weather View 32 v70,2013-05-01 03:40:00,
2013-04-30 23:45:00,70.0,55.0,30.11,ENE,67,7.0,13.0,59,0.00,,,0.02,Weather View 32 v70,2013-05-01 03:45:00,
2013-04-30 23:50:00,70.0,55.4,30.11,ENE,67,6.0,13.0,60,0.00,,,0.02,Weather View 32 v70,2013-05-01 03:50:00,
2013-04-30 23:55:00,70.0,55.4,30.11,ENE,67,8.0,13.0,60,0.00,,,0.02,Weather View 32 v70,2013-05-01 03:55:00,